sensor_id;sensor_type;location;lat;lon;timestamp;temperature;humidity
41324;DHT22;27073;51.128;4.220;2023-02-28T00:00:20;5.10;1.00
41324;DHT22;27073;51.128;4.220;2023-02-28T00:02:47;5.10;1.00
41324;DHT22;27073;51.128;4.220;2023-02-28T00:05:16;5.10;1.00
41324;DHT22;27073;51.128;4.220;2023-02-28T00:07:42;5.10;1.00
41324;DHT22;27073;51.128;4.220;2023-02-28T00:10:11;5.00;1.00
41324;DHT22;27073;51.128;4.220;2023-02-28T00:12:38;4.90;1.00
41324;DHT22;27073;51.128;4.220;2023-02-28T00:15:10;5.00;1.00
41324;DHT22;27073;51.128;4.220;2023-02-28T00:17:36;5.00;1.00
41324;DHT22;27073;51.128;4.220;2023-02-28T00:20:02;5.00;1.00
41324;DHT22;27073;51.128;4.220;2023-02-28T00:22:30;5.00;1.00
41324;DHT22;27073;51.128;4.220;2023-02-28T00:24:56;4.90;1.00
41324;DHT22;27073;51.128;4.220;2023-02-28T00:27:22;4.80;1.00
41324;DHT22;27073;51.128;4.220;2023-02-28T00:29:47;4.90;1.00
41324;DHT22;27073;51.128;4.220;2023-02-28T00:32:13;4.80;1.00
41324;DHT22;27073;51.128;4.220;2023-02-28T00:34:39;4.80;1.00
41324;DHT22;27073;51.128;4.220;2023-02-28T00:37:06;4.80;1.00
41324;DHT22;27073;51.128;4.220;2023-02-28T00:39:38;4.80;1.00
41324;DHT22;27073;51.128;4.220;2023-02-28T00:42:05;4.80;1.00
41324;DHT22;27073;51.128;4.220;2023-02-28T00:44:31;4.80;1.00
41324;DHT22;27073;51.128;4.220;2023-02-28T00:46:58;4.80;1.00
41324;DHT22;27073;51.128;4.220;2023-02-28T00:49:25;4.80;1.00
41324;DHT22;27073;51.128;4.220;2023-02-28T00:51:51;4.90;1.00
41324;DHT22;27073;51.128;4.220;2023-02-28T00:54:18;5.00;1.00
41324;DHT22;27073;51.128;4.220;2023-02-28T00:56:46;5.00;1.00
41324;DHT22;27073;51.128;4.220;2023-02-28T00:59:16;5.00;1.00
41324;DHT22;27073;51.128;4.220;2023-02-28T01:01:42;5.00;1.00
41324;DHT22;27073;51.128;4.220;2023-02-28T01:04:08;5.00;1.00
41324;DHT22;27073;51.128;4.220;2023-02-28T01:06:35;5.00;1.00
41324;DHT22;27073;51.128;4.220;2023-02-28T01:09:03;5.00;1.00
41324;DHT22;27073;51.128;4.220;2023-02-28T01:11:28;4.90;1.00
41324;DHT22;27073;51.128;4.220;2023-02-28T01:13:54;4.90;1.00
41324;DHT22;27073;51.128;4.220;2023-02-28T01:16:20;4.90;1.00
41324;DHT22;27073;51.128;4.220;2023-02-28T01:18:45;4.90;1.00
41324;DHT22;27073;51.128;4.220;2023-02-28T01:21:14;4.80;1.00
41324;DHT22;27073;51.128;4.220;2023-02-28T01:23:41;4.80;1.00
41324;DHT22;27073;51.128;4.220;2023-02-28T01:26:11;4.90;1.00
41324;DHT22;27073;51.128;4.220;2023-02-28T01:28:39;5.00;1.00
41324;DHT22;27073;51.128;4.220;2023-02-28T01:31:06;4.90;1.00
41324;DHT22;27073;51.128;4.220;2023-02-28T01:33:33;4.90;1.00
41324;DHT22;27073;51.128;4.220;2023-02-28T01:36:03;4.80;1.00
41324;DHT22;27073;51.128;4.220;2023-02-28T01:38:30;4.70;1.00
41324;DHT22;27073;51.128;4.220;2023-02-28T01:40:55;4.70;1.00
41324;DHT22;27073;51.128;4.220;2023-02-28T01:46:12;4.50;1.00
41324;DHT22;27073;51.128;4.220;2023-02-28T01:48:49;4.40;1.00
41324;DHT22;27073;51.128;4.220;2023-02-28T01:54:14;4.10;6.10
41324;DHT22;27073;51.128;4.220;2023-02-28T01:56:49;4.20;8.30
41324;DHT22;27073;51.128;4.220;2023-02-28T01:59:25;4.00;10.20
41324;DHT22;27073;51.128;4.220;2023-02-28T02:01:53;4.10;13.10
41324;DHT22;27073;51.128;4.220;2023-02-28T02:04:19;4.20;11.20
41324;DHT22;27073;51.128;4.220;2023-02-28T02:06:47;4.20;8.90
41324;DHT22;27073;51.128;4.220;2023-02-28T02:09:13;4.20;10.30
41324;DHT22;27073;51.128;4.220;2023-02-28T02:11:40;4.10;10.80
41324;DHT22;27073;51.128;4.220;2023-02-28T02:36:36;4.00;17.20
41324;DHT22;27073;51.128;4.220;2023-02-28T02:41:59;4.00;14.90
41324;DHT22;27073;51.128;4.220;2023-02-28T02:47:03;4.00;15.50
41324;DHT22;27073;51.128;4.220;2023-02-28T02:49:36;4.00;17.20
41324;DHT22;27073;51.128;4.220;2023-02-28T02:52:08;4.00;19.10
41324;DHT22;27073;51.128;4.220;2023-02-28T02:54:41;4.10;18.60
41324;DHT22;27073;51.128;4.220;2023-02-28T02:57:23;4.10;17.80
41324;DHT22;27073;51.128;4.220;2023-02-28T02:59:53;4.10;19.00
41324;DHT22;27073;51.128;4.220;2023-02-28T03:02:21;4.00;19.00
41324;DHT22;27073;51.128;4.220;2023-02-28T03:05:01;4.10;19.60
41324;DHT22;27073;51.128;4.220;2023-02-28T03:07:28;4.10;23.30
41324;DHT22;27073;51.128;4.220;2023-02-28T03:09:55;4.20;20.50
41324;DHT22;27073;51.128;4.220;2023-02-28T03:12:24;4.10;21.60
41324;DHT22;27073;51.128;4.220;2023-02-28T03:15:07;4.20;21.30
41324;DHT22;27073;51.128;4.220;2023-02-28T03:17:53;4.20;22.30
41324;DHT22;27073;51.128;4.220;2023-02-28T03:20:45;4.10;20.00
41324;DHT22;27073;51.128;4.220;2023-02-28T03:23:19;4.10;21.50
41324;DHT22;27073;51.128;4.220;2023-02-28T03:25:59;4.10;22.40
41324;DHT22;27073;51.128;4.220;2023-02-28T03:31:35;4.20;20.40
41324;DHT22;27073;51.128;4.220;2023-02-28T03:36:38;4.20;17.60
41324;DHT22;27073;51.128;4.220;2023-02-28T03:39:13;4.20;17.80
41324;DHT22;27073;51.128;4.220;2023-02-28T03:41:46;4.30;19.80
41324;DHT22;27073;51.128;4.220;2023-02-28T03:44:44;4.20;19.20
41324;DHT22;27073;51.128;4.220;2023-02-28T03:47:21;4.30;18.60
41324;DHT22;27073;51.128;4.220;2023-02-28T03:52:27;4.30;22.30
41324;DHT22;27073;51.128;4.220;2023-02-28T03:54:56;4.40;20.40
41324;DHT22;27073;51.128;4.220;2023-02-28T04:00:14;4.40;20.10
41324;DHT22;27073;51.128;4.220;2023-02-28T04:02:42;4.50;15.70
41324;DHT22;27073;51.128;4.220;2023-02-28T04:05:08;4.60;13.50
41324;DHT22;27073;51.128;4.220;2023-02-28T04:07:33;4.50;14.00
41324;DHT22;27073;51.128;4.220;2023-02-28T04:09:59;4.50;14.60
41324;DHT22;27073;51.128;4.220;2023-02-28T04:12:25;4.60;13.20
41324;DHT22;27073;51.128;4.220;2023-02-28T04:14:51;4.70;13.20
41324;DHT22;27073;51.128;4.220;2023-02-28T04:17:17;4.60;16.00
41324;DHT22;27073;51.128;4.220;2023-02-28T04:19:43;4.60;16.60
41324;DHT22;27073;51.128;4.220;2023-02-28T04:22:09;4.40;21.80
41324;DHT22;27073;51.128;4.220;2023-02-28T04:24:35;4.60;22.70
41324;DHT22;27073;51.128;4.220;2023-02-28T04:27:01;4.60;20.50
41324;DHT22;27073;51.128;4.220;2023-02-28T04:29:31;4.70;18.80
41324;DHT22;27073;51.128;4.220;2023-02-28T04:32:01;4.60;18.80
41324;DHT22;27073;51.128;4.220;2023-02-28T04:34:28;4.70;18.50
41324;DHT22;27073;51.128;4.220;2023-02-28T04:36:55;4.70;18.20
41324;DHT22;27073;51.128;4.220;2023-02-28T04:39:22;4.70;17.20
41324;DHT22;27073;51.128;4.220;2023-02-28T04:41:48;4.70;17.20
41324;DHT22;27073;51.128;4.220;2023-02-28T04:44:15;4.70;16.50
41324;DHT22;27073;51.128;4.220;2023-02-28T04:46:41;4.80;20.00
41324;DHT22;27073;51.128;4.220;2023-02-28T04:49:09;4.80;17.00
41324;DHT22;27073;51.128;4.220;2023-02-28T04:51:36;4.90;16.70
41324;DHT22;27073;51.128;4.220;2023-02-28T04:54:01;5.00;13.30
41324;DHT22;27073;51.128;4.220;2023-02-28T04:56:27;5.00;11.10
41324;DHT22;27073;51.128;4.220;2023-02-28T04:58:53;5.00;13.40
41324;DHT22;27073;51.128;4.220;2023-02-28T05:01:21;4.90;15.60
41324;DHT22;27073;51.128;4.220;2023-02-28T05:03:48;4.90;16.90
41324;DHT22;27073;51.128;4.220;2023-02-28T05:06:14;5.10;15.90
41324;DHT22;27073;51.128;4.220;2023-02-28T05:08:40;5.00;14.90
41324;DHT22;27073;51.128;4.220;2023-02-28T05:11:12;5.10;13.70
41324;DHT22;27073;51.128;4.220;2023-02-28T05:13:39;5.20;11.50
41324;DHT22;27073;51.128;4.220;2023-02-28T05:16:06;5.10;11.10
41324;DHT22;27073;51.128;4.220;2023-02-28T05:18:31;5.00;15.50
41324;DHT22;27073;51.128;4.220;2023-02-28T05:20:57;4.90;19.20
41324;DHT22;27073;51.128;4.220;2023-02-28T05:23:23;5.00;20.40
41324;DHT22;27073;51.128;4.220;2023-02-28T05:25:49;5.10;17.70
41324;DHT22;27073;51.128;4.220;2023-02-28T05:28:14;5.20;15.20
41324;DHT22;27073;51.128;4.220;2023-02-28T05:30:40;5.20;11.40
41324;DHT22;27073;51.128;4.220;2023-02-28T05:33:06;5.10;11.10
41324;DHT22;27073;51.128;4.220;2023-02-28T05:35:32;5.20;9.50
41324;DHT22;27073;51.128;4.220;2023-02-28T05:37:57;5.10;7.40
41324;DHT22;27073;51.128;4.220;2023-02-28T05:40:23;4.90;13.20
41324;DHT22;27073;51.128;4.220;2023-02-28T05:42:50;4.80;14.50
41324;DHT22;27073;51.128;4.220;2023-02-28T05:45:16;4.80;18.00
41324;DHT22;27073;51.128;4.220;2023-02-28T05:47:42;4.60;16.30
41324;DHT22;27073;51.128;4.220;2023-02-28T05:50:08;4.60;19.40
41324;DHT22;27073;51.128;4.220;2023-02-28T05:52:36;4.60;20.50
41324;DHT22;27073;51.128;4.220;2023-02-28T05:55:02;4.70;18.40
41324;DHT22;27073;51.128;4.220;2023-02-28T05:57:28;4.70;19.40
41324;DHT22;27073;51.128;4.220;2023-02-28T05:59:53;4.70;18.40
41324;DHT22;27073;51.128;4.220;2023-02-28T06:02:19;4.70;20.60
41324;DHT22;27073;51.128;4.220;2023-02-28T06:04:45;4.70;22.60
41324;DHT22;27073;51.128;4.220;2023-02-28T06:07:11;4.90;23.70
41324;DHT22;27073;51.128;4.220;2023-02-28T06:09:38;4.90;21.60
41324;DHT22;27073;51.128;4.220;2023-02-28T06:12:05;5.00;16.10
41324;DHT22;27073;51.128;4.220;2023-02-28T06:14:32;5.10;13.70
41324;DHT22;27073;51.128;4.220;2023-02-28T06:16:59;5.00;13.30
41324;DHT22;27073;51.128;4.220;2023-02-28T06:19:25;5.00;14.20
41324;DHT22;27073;51.128;4.220;2023-02-28T06:21:51;5.00;13.00
41324;DHT22;27073;51.128;4.220;2023-02-28T06:24:22;4.80;13.50
41324;DHT22;27073;51.128;4.220;2023-02-28T06:26:48;4.80;11.40
41324;DHT22;27073;51.128;4.220;2023-02-28T06:29:14;4.80;12.10
41324;DHT22;27073;51.128;4.220;2023-02-28T06:31:47;4.70;16.20
41324;DHT22;27073;51.128;4.220;2023-02-28T06:34:13;4.60;15.90
41324;DHT22;27073;51.128;4.220;2023-02-28T06:36:40;4.60;13.00
41324;DHT22;27073;51.128;4.220;2023-02-28T06:39:07;4.60;15.60
41324;DHT22;27073;51.128;4.220;2023-02-28T06:41:33;4.50;17.10
41324;DHT22;27073;51.128;4.220;2023-02-28T06:44:13;4.40;18.80
41324;DHT22;27073;51.128;4.220;2023-02-28T06:46:40;4.40;17.70
41324;DHT22;27073;51.128;4.220;2023-02-28T06:49:07;4.40;20.90
41324;DHT22;27073;51.128;4.220;2023-02-28T06:51:35;4.30;21.60
41324;DHT22;27073;51.128;4.220;2023-02-28T06:54:02;4.30;26.40
41324;DHT22;27073;51.128;4.220;2023-02-28T06:56:28;4.40;27.80
41324;DHT22;27073;51.128;4.220;2023-02-28T06:58:54;4.40;26.40
41324;DHT22;27073;51.128;4.220;2023-02-28T07:01:20;4.30;27.20
41324;DHT22;27073;51.128;4.220;2023-02-28T07:03:48;4.30;29.00
41324;DHT22;27073;51.128;4.220;2023-02-28T07:06:18;4.30;34.80
41324;DHT22;27073;51.128;4.220;2023-02-28T07:08:44;4.30;35.40
41324;DHT22;27073;51.128;4.220;2023-02-28T07:11:11;4.20;36.80
41324;DHT22;27073;51.128;4.220;2023-02-28T07:13:36;4.30;41.20
41324;DHT22;27073;51.128;4.220;2023-02-28T07:16:04;4.40;41.20
41324;DHT22;27073;51.128;4.220;2023-02-28T07:18:31;4.50;40.90
41324;DHT22;27073;51.128;4.220;2023-02-28T07:20:57;4.60;38.80
41324;DHT22;27073;51.128;4.220;2023-02-28T07:23:23;4.70;37.50
41324;DHT22;27073;51.128;4.220;2023-02-28T07:25:50;4.70;40.70
41324;DHT22;27073;51.128;4.220;2023-02-28T07:28:16;4.80;35.30
41324;DHT22;27073;51.128;4.220;2023-02-28T07:30:41;4.90;31.80
41324;DHT22;27073;51.128;4.220;2023-02-28T07:33:08;5.00;31.40
41324;DHT22;27073;51.128;4.220;2023-02-28T07:35:40;5.00;27.00
41324;DHT22;27073;51.128;4.220;2023-02-28T07:38:06;4.90;28.70
41324;DHT22;27073;51.128;4.220;2023-02-28T07:40:34;4.90;28.50
41324;DHT22;27073;51.128;4.220;2023-02-28T07:43:01;5.00;29.60
41324;DHT22;27073;51.128;4.220;2023-02-28T07:45:28;5.00;25.80
41324;DHT22;27073;51.128;4.220;2023-02-28T07:48:00;5.00;27.50
41324;DHT22;27073;51.128;4.220;2023-02-28T07:50:26;4.80;23.20
41324;DHT22;27073;51.128;4.220;2023-02-28T07:52:59;4.90;22.70
41324;DHT22;27073;51.128;4.220;2023-02-28T07:55:25;5.00;20.80
41324;DHT22;27073;51.128;4.220;2023-02-28T07:57:51;4.90;21.30
41324;DHT22;27073;51.128;4.220;2023-02-28T08:00:17;4.90;23.00
41324;DHT22;27073;51.128;4.220;2023-02-28T08:02:44;5.00;20.30
41324;DHT22;27073;51.128;4.220;2023-02-28T08:05:09;5.10;17.70
41324;DHT22;27073;51.128;4.220;2023-02-28T08:07:35;5.10;18.80
41324;DHT22;27073;51.128;4.220;2023-02-28T08:10:01;5.30;17.80
41324;DHT22;27073;51.128;4.220;2023-02-28T08:12:27;5.30;13.10
41324;DHT22;27073;51.128;4.220;2023-02-28T08:14:53;5.30;5.70
41324;DHT22;27073;51.128;4.220;2023-02-28T08:17:18;5.40;10.80
41324;DHT22;27073;51.128;4.220;2023-02-28T08:19:47;5.40;5.70
41324;DHT22;27073;51.128;4.220;2023-02-28T08:22:13;5.30;1.00
41324;DHT22;27073;51.128;4.220;2023-02-28T08:24:41;5.30;3.70
41324;DHT22;27073;51.128;4.220;2023-02-28T08:27:07;5.30;8.80
41324;DHT22;27073;51.128;4.220;2023-02-28T08:29:33;5.30;2.10
41324;DHT22;27073;51.128;4.220;2023-02-28T08:31:59;5.40;2.60
41324;DHT22;27073;51.128;4.220;2023-02-28T08:34:25;5.60;1.50
41324;DHT22;27073;51.128;4.220;2023-02-28T08:36:50;5.60;1.00
41324;DHT22;27073;51.128;4.220;2023-02-28T08:39:16;5.50;1.00
41324;DHT22;27073;51.128;4.220;2023-02-28T08:41:42;5.50;99.90
41324;DHT22;27073;51.128;4.220;2023-02-28T08:44:09;5.40;99.90
41324;DHT22;27073;51.128;4.220;2023-02-28T08:46:35;5.40;99.90
41324;DHT22;27073;51.128;4.220;2023-02-28T08:49:01;5.50;99.90
41324;DHT22;27073;51.128;4.220;2023-02-28T08:51:28;5.60;99.90
41324;DHT22;27073;51.128;4.220;2023-02-28T08:53:59;5.60;31.10
41324;DHT22;27073;51.128;4.220;2023-02-28T08:56:27;5.40;1.00
41324;DHT22;27073;51.128;4.220;2023-02-28T08:58:54;5.20;1.00
41324;DHT22;27073;51.128;4.220;2023-02-28T09:01:28;5.20;99.90
41324;DHT22;27073;51.128;4.220;2023-02-28T09:03:55;5.20;93.70
41324;DHT22;27073;51.128;4.220;2023-02-28T09:06:24;5.40;99.90
41324;DHT22;27073;51.128;4.220;2023-02-28T09:08:51;5.70;99.90
41324;DHT22;27073;51.128;4.220;2023-02-28T09:11:17;5.70;99.90
41324;DHT22;27073;51.128;4.220;2023-02-28T09:13:45;5.60;99.90
41324;DHT22;27073;51.128;4.220;2023-02-28T09:16:12;5.70;1.00
41324;DHT22;27073;51.128;4.220;2023-02-28T09:18:39;5.60;99.90
41324;DHT22;27073;51.128;4.220;2023-02-28T09:21:06;5.50;96.10
41324;DHT22;27073;51.128;4.220;2023-02-28T09:23:33;5.60;99.90
41324;DHT22;27073;51.128;4.220;2023-02-28T09:25:58;5.40;1.00
41324;DHT22;27073;51.128;4.220;2023-02-28T09:28:24;5.40;1.00
41324;DHT22;27073;51.128;4.220;2023-02-28T09:30:53;5.60;99.90
41324;DHT22;27073;51.128;4.220;2023-02-28T09:33:19;5.70;99.90
41324;DHT22;27073;51.128;4.220;2023-02-28T09:35:48;5.70;99.90
41324;DHT22;27073;51.128;4.220;2023-02-28T09:38:15;6.10;33.70
41324;DHT22;27073;51.128;4.220;2023-02-28T09:40:53;6.10;1.00
41324;DHT22;27073;51.128;4.220;2023-02-28T09:43:22;6.10;99.90
41324;DHT22;27073;51.128;4.220;2023-02-28T09:45:57;6.10;99.90
41324;DHT22;27073;51.128;4.220;2023-02-28T09:48:29;6.40;99.90
41324;DHT22;27073;51.128;4.220;2023-02-28T09:51:03;6.40;95.00
41324;DHT22;27073;51.128;4.220;2023-02-28T09:53:34;6.60;1.00
41324;DHT22;27073;51.128;4.220;2023-02-28T09:56:21;6.40;99.90
41324;DHT22;27073;51.128;4.220;2023-02-28T09:58:59;6.60;99.90
41324;DHT22;27073;51.128;4.220;2023-02-28T10:04:35;6.70;99.90
41324;DHT22;27073;51.128;4.220;2023-02-28T10:07:07;6.70;99.90
41324;DHT22;27073;51.128;4.220;2023-02-28T10:09:45;7.10;99.90
41324;DHT22;27073;51.128;4.220;2023-02-28T10:12:13;7.20;97.70
41324;DHT22;27073;51.128;4.220;2023-02-28T10:14:45;7.00;99.90
41324;DHT22;27073;51.128;4.220;2023-02-28T10:17:21;7.30;99.90
41324;DHT22;27073;51.128;4.220;2023-02-28T10:22:58;7.30;99.90
41324;DHT22;27073;51.128;4.220;2023-02-28T10:25:29;7.10;1.00
41324;DHT22;27073;51.128;4.220;2023-02-28T10:30:36;7.10;99.90
41324;DHT22;27073;51.128;4.220;2023-02-28T10:33:03;7.10;99.90
41324;DHT22;27073;51.128;4.220;2023-02-28T10:35:29;7.20;30.90
41324;DHT22;27073;51.128;4.220;2023-02-28T10:37:57;7.20;1.00
41324;DHT22;27073;51.128;4.220;2023-02-28T10:43:00;6.90;1.00
41324;DHT22;27073;51.128;4.220;2023-02-28T10:45:31;6.80;1.00
41324;DHT22;27073;51.128;4.220;2023-02-28T10:50:51;6.60;1.00
41324;DHT22;27073;51.128;4.220;2023-02-28T10:58:34;6.20;2.90
41324;DHT22;27073;51.128;4.220;2023-02-28T11:03:45;6.30;65.60
41324;DHT22;27073;51.128;4.220;2023-02-28T11:06:23;6.30;1.00
41324;DHT22;27073;51.128;4.220;2023-02-28T11:11:28;6.20;99.90
41324;DHT22;27073;51.128;4.220;2023-02-28T11:14:04;6.20;99.90
41324;DHT22;27073;51.128;4.220;2023-02-28T11:16:35;6.20;99.90
41324;DHT22;27073;51.128;4.220;2023-02-28T11:19:02;6.30;99.90
41324;DHT22;27073;51.128;4.220;2023-02-28T11:21:33;6.40;99.90
41324;DHT22;27073;51.128;4.220;2023-02-28T11:24:22;6.40;99.90
41324;DHT22;27073;51.128;4.220;2023-02-28T11:26:49;6.40;99.90
41324;DHT22;27073;51.128;4.220;2023-02-28T11:32:12;6.40;35.80
41324;DHT22;27073;51.128;4.220;2023-02-28T11:34:39;6.50;1.00
41324;DHT22;27073;51.128;4.220;2023-02-28T11:37:09;6.60;42.40
41324;DHT22;27073;51.128;4.220;2023-02-28T11:39:36;6.70;1.00
41324;DHT22;27073;51.128;4.220;2023-02-28T11:50:50;7.10;99.90
41324;DHT22;27073;51.128;4.220;2023-02-28T11:56:23;6.90;99.90
41324;DHT22;27073;51.128;4.220;2023-02-28T11:59:14;7.10;99.90
41324;DHT22;27073;51.128;4.220;2023-02-28T12:08:09;7.40;99.90
41324;DHT22;27073;51.128;4.220;2023-02-28T12:10:42;7.50;99.90
41324;DHT22;27073;51.128;4.220;2023-02-28T12:13:18;7.30;99.90
41324;DHT22;27073;51.128;4.220;2023-02-28T12:26:39;7.80;99.90
41324;DHT22;27073;51.128;4.220;2023-02-28T12:29:25;7.90;99.90
41324;DHT22;27073;51.128;4.220;2023-02-28T12:31:58;8.10;99.90
41324;DHT22;27073;51.128;4.220;2023-02-28T12:34:32;8.20;99.90
41324;DHT22;27073;51.128;4.220;2023-02-28T12:37:03;8.40;99.90
41324;DHT22;27073;51.128;4.220;2023-02-28T12:39:39;8.30;99.90
41324;DHT22;27073;51.128;4.220;2023-02-28T12:42:28;7.90;99.90
41324;DHT22;27073;51.128;4.220;2023-02-28T12:44:59;8.10;99.90
41324;DHT22;27073;51.128;4.220;2023-02-28T12:47:26;8.30;99.90
41324;DHT22;27073;51.128;4.220;2023-02-28T12:50:12;8.10;99.90
41324;DHT22;27073;51.128;4.220;2023-02-28T12:53:00;8.20;99.90
41324;DHT22;27073;51.128;4.220;2023-02-28T12:58:13;8.60;99.90
41324;DHT22;27073;51.128;4.220;2023-02-28T13:11:39;8.40;99.90
41324;DHT22;27073;51.128;4.220;2023-02-28T13:14:29;8.50;99.90
41324;DHT22;27073;51.128;4.220;2023-02-28T13:17:23;8.60;99.90
41324;DHT22;27073;51.128;4.220;2023-02-28T13:24:52;8.90;99.90
41324;DHT22;27073;51.128;4.220;2023-02-28T13:29:53;8.50;99.90
41324;DHT22;27073;51.128;4.220;2023-02-28T13:39:59;9.20;99.90
41324;DHT22;27073;51.128;4.220;2023-02-28T13:47:51;9.30;99.90
41324;DHT22;27073;51.128;4.220;2023-02-28T13:50:27;9.20;92.00
41324;DHT22;27073;51.128;4.220;2023-02-28T13:56:49;9.10;92.30
41324;DHT22;27073;51.128;4.220;2023-02-28T14:01:27;8.80;95.00
41324;DHT22;27073;51.128;4.220;2023-02-28T14:06:40;9.10;93.90
41324;DHT22;27073;51.128;4.220;2023-02-28T14:11:42;9.10;99.90
41324;DHT22;27073;51.128;4.220;2023-02-28T14:17:02;9.40;93.30
41324;DHT22;27073;51.128;4.220;2023-02-28T14:19:31;9.40;95.60
41324;DHT22;27073;51.128;4.220;2023-02-28T14:22:39;9.50;96.30
41324;DHT22;27073;51.128;4.220;2023-02-28T14:25:17;9.60;97.90
41324;DHT22;27073;51.128;4.220;2023-02-28T14:33:34;9.70;96.60
41324;DHT22;27073;51.128;4.220;2023-02-28T14:36:27;9.80;97.40
41324;DHT22;27073;51.128;4.220;2023-02-28T14:39:05;10.00;96.30
41324;DHT22;27073;51.128;4.220;2023-02-28T14:41:37;9.70;94.00
41324;DHT22;27073;51.128;4.220;2023-02-28T14:44:18;9.80;99.70
41324;DHT22;27073;51.128;4.220;2023-02-28T14:46:46;10.00;97.40
41324;DHT22;27073;51.128;4.220;2023-02-28T14:49:44;10.40;99.90
41324;DHT22;27073;51.128;4.220;2023-02-28T14:52:25;10.40;93.30
41324;DHT22;27073;51.128;4.220;2023-02-28T14:54:55;10.20;87.00
41324;DHT22;27073;51.128;4.220;2023-02-28T14:57:25;9.90;86.30
41324;DHT22;27073;51.128;4.220;2023-02-28T15:00:14;9.90;87.10
41324;DHT22;27073;51.128;4.220;2023-02-28T15:02:41;10.10;94.00
41324;DHT22;27073;51.128;4.220;2023-02-28T15:07:35;10.10;88.20
41324;DHT22;27073;51.128;4.220;2023-02-28T15:10:27;10.40;89.20
41324;DHT22;27073;51.128;4.220;2023-02-28T15:13:04;10.50;81.80
41324;DHT22;27073;51.128;4.220;2023-02-28T15:20:49;11.90;66.70
41324;DHT22;27073;51.128;4.220;2023-02-28T15:23:16;11.80;36.10
41324;DHT22;27073;51.128;4.220;2023-02-28T15:25:43;12.60;43.30
41324;DHT22;27073;51.128;4.220;2023-02-28T15:28:14;12.80;22.20
41324;DHT22;27073;51.128;4.220;2023-02-28T15:30:50;13.50;6.90
41324;DHT22;27073;51.128;4.220;2023-02-28T15:35:42;14.20;1.00
41324;DHT22;27073;51.128;4.220;2023-02-28T15:38:26;14.80;1.00
41324;DHT22;27073;51.128;4.220;2023-02-28T15:40:57;16.20;1.00
41324;DHT22;27073;51.128;4.220;2023-02-28T15:43:30;17.10;1.00
41324;DHT22;27073;51.128;4.220;2023-02-28T15:46:02;17.40;1.00
41324;DHT22;27073;51.128;4.220;2023-02-28T15:48:31;18.40;1.00
41324;DHT22;27073;51.128;4.220;2023-02-28T15:53:41;17.00;1.00
41324;DHT22;27073;51.128;4.220;2023-02-28T15:56:25;16.50;1.00
41324;DHT22;27073;51.128;4.220;2023-02-28T15:59:00;17.60;1.00
41324;DHT22;27073;51.128;4.220;2023-02-28T16:01:35;16.80;1.00
41324;DHT22;27073;51.128;4.220;2023-02-28T16:04:10;16.30;1.00
41324;DHT22;27073;51.128;4.220;2023-02-28T16:07:11;16.80;1.00
41324;DHT22;27073;51.128;4.220;2023-02-28T16:09:38;17.40;1.00
41324;DHT22;27073;51.128;4.220;2023-02-28T16:12:04;15.80;99.90
41324;DHT22;27073;51.128;4.220;2023-02-28T16:14:31;14.80;99.90
41324;DHT22;27073;51.128;4.220;2023-02-28T16:17:06;14.60;1.00
41324;DHT22;27073;51.128;4.220;2023-02-28T16:19:34;15.10;1.00
41324;DHT22;27073;51.128;4.220;2023-02-28T16:22:00;14.50;1.00
41324;DHT22;27073;51.128;4.220;2023-02-28T16:24:26;15.40;1.00
41324;DHT22;27073;51.128;4.220;2023-02-28T16:26:53;15.30;1.00
41324;DHT22;27073;51.128;4.220;2023-02-28T16:29:32;13.60;99.90
41324;DHT22;27073;51.128;4.220;2023-02-28T16:31:59;14.10;1.00
41324;DHT22;27073;51.128;4.220;2023-02-28T16:34:25;15.40;1.00
41324;DHT22;27073;51.128;4.220;2023-02-28T16:36:52;15.70;1.00
41324;DHT22;27073;51.128;4.220;2023-02-28T16:39:20;16.30;1.00
41324;DHT22;27073;51.128;4.220;2023-02-28T16:41:49;16.10;1.00
41324;DHT22;27073;51.128;4.220;2023-02-28T16:44:28;15.60;1.00
41324;DHT22;27073;51.128;4.220;2023-02-28T16:46:54;15.30;1.00
41324;DHT22;27073;51.128;4.220;2023-02-28T16:49:21;15.60;1.00
41324;DHT22;27073;51.128;4.220;2023-02-28T16:51:47;16.00;1.00
41324;DHT22;27073;51.128;4.220;2023-02-28T16:54:13;16.10;1.00
41324;DHT22;27073;51.128;4.220;2023-02-28T16:56:44;15.00;99.90
41324;DHT22;27073;51.128;4.220;2023-02-28T16:59:10;15.20;1.00
41324;DHT22;27073;51.128;4.220;2023-02-28T17:01:36;14.60;1.00
41324;DHT22;27073;51.128;4.220;2023-02-28T17:04:02;14.00;1.00
41324;DHT22;27073;51.128;4.220;2023-02-28T17:06:29;14.50;1.00
41324;DHT22;27073;51.128;4.220;2023-02-28T17:08:56;13.50;1.00
41324;DHT22;27073;51.128;4.220;2023-02-28T17:11:24;13.20;1.00
41324;DHT22;27073;51.128;4.220;2023-02-28T17:13:50;12.50;1.00
41324;DHT22;27073;51.128;4.220;2023-02-28T17:16:29;12.00;1.00
41324;DHT22;27073;51.128;4.220;2023-02-28T17:18:59;11.00;1.00
41324;DHT22;27073;51.128;4.220;2023-02-28T17:21:25;10.90;1.00
41324;DHT22;27073;51.128;4.220;2023-02-28T17:23:50;10.70;1.00
41324;DHT22;27073;51.128;4.220;2023-02-28T17:26:18;10.60;1.00
41324;DHT22;27073;51.128;4.220;2023-02-28T17:28:48;10.80;1.00
41324;DHT22;27073;51.128;4.220;2023-02-28T17:31:15;10.50;1.00
41324;DHT22;27073;51.128;4.220;2023-02-28T17:33:41;10.00;1.00
41324;DHT22;27073;51.128;4.220;2023-02-28T17:36:16;10.20;1.00
41324;DHT22;27073;51.128;4.220;2023-02-28T17:38:43;10.20;9.80
41324;DHT22;27073;51.128;4.220;2023-02-28T17:41:12;10.10;13.70
41324;DHT22;27073;51.128;4.220;2023-02-28T17:43:38;9.90;24.50
41324;DHT22;27073;51.128;4.220;2023-02-28T17:46:04;9.50;27.70
41324;DHT22;27073;51.128;4.220;2023-02-28T17:48:33;9.60;64.60
41324;DHT22;27073;51.128;4.220;2023-02-28T17:51:01;9.30;74.00
41324;DHT22;27073;51.128;4.220;2023-02-28T17:53:26;9.00;98.80
41324;DHT22;27073;51.128;4.220;2023-02-28T17:55:52;9.30;99.90
41324;DHT22;27073;51.128;4.220;2023-02-28T17:58:18;9.40;99.90
41324;DHT22;27073;51.128;4.220;2023-02-28T18:00:44;9.30;99.90
41324;DHT22;27073;51.128;4.220;2023-02-28T18:03:11;9.40;99.90
41324;DHT22;27073;51.128;4.220;2023-02-28T18:05:38;9.50;99.90
41324;DHT22;27073;51.128;4.220;2023-02-28T18:08:05;9.40;99.90
41324;DHT22;27073;51.128;4.220;2023-02-28T18:10:30;9.40;99.90
41324;DHT22;27073;51.128;4.220;2023-02-28T18:12:59;9.30;99.90
41324;DHT22;27073;51.128;4.220;2023-02-28T18:15:24;9.20;99.90
41324;DHT22;27073;51.128;4.220;2023-02-28T18:17:50;9.10;99.90
41324;DHT22;27073;51.128;4.220;2023-02-28T18:20:17;8.90;99.90
41324;DHT22;27073;51.128;4.220;2023-02-28T18:22:42;8.90;99.90
41324;DHT22;27073;51.128;4.220;2023-02-28T18:25:10;8.80;99.90
41324;DHT22;27073;51.128;4.220;2023-02-28T18:27:40;8.60;99.90
41324;DHT22;27073;51.128;4.220;2023-02-28T18:30:26;8.60;99.90
41324;DHT22;27073;51.128;4.220;2023-02-28T18:32:53;8.60;99.90
41324;DHT22;27073;51.128;4.220;2023-02-28T18:35:18;8.50;99.90
41324;DHT22;27073;51.128;4.220;2023-02-28T18:38:04;8.50;99.90
41324;DHT22;27073;51.128;4.220;2023-02-28T18:40:31;8.30;99.90
41324;DHT22;27073;51.128;4.220;2023-02-28T18:42:57;8.30;99.90
41324;DHT22;27073;51.128;4.220;2023-02-28T18:45:22;8.30;99.90
41324;DHT22;27073;51.128;4.220;2023-02-28T18:47:48;8.30;99.90
41324;DHT22;27073;51.128;4.220;2023-02-28T18:50:14;8.30;99.90